createdAt,value
2023-03-16T00:00:13.833Z,-2.26
2023-03-16T00:03:19.314Z,-2.99
2023-03-16T00:06:25.772Z,-2.11
2023-03-16T00:09:31.119Z,-2.62
2023-03-16T00:12:35.603Z,-2.73
2023-03-16T00:15:38.781Z,-2.48
2023-03-16T00:18:41.974Z,-2.64
2023-03-16T00:21:46.591Z,-3.13
2023-03-16T00:24:49.740Z,-2.82
2023-03-16T00:27:52.864Z,-2.57
2023-03-16T00:30:58.913Z,-2.19
2023-03-16T00:34:02.799Z,-2.64
2023-03-16T00:37:08.114Z,-2.20
2023-03-16T00:40:13.550Z,-3.32
2023-03-16T00:43:18.724Z,-3.32
2023-03-16T00:46:26.931Z,-3.39
2023-03-16T00:49:30.038Z,-3.53
2023-03-16T00:52:35.325Z,-3.65
2023-03-16T00:55:38.429Z,-3.32
2023-03-16T00:58:43.490Z,-3.54
2023-03-16T01:01:47.759Z,-3.71
2023-03-16T01:04:51.871Z,-3.60
2023-03-16T01:07:56.587Z,-3.46
2023-03-16T01:11:04.396Z,-3.74
2023-03-16T01:14:07.505Z,-2.78
2023-03-16T01:17:11.006Z,-3.76
2023-03-16T01:20:15.772Z,-3.86
2023-03-16T01:23:21.567Z,-3.52
2023-03-16T01:26:25.246Z,-2.89
2023-03-16T01:29:28.570Z,-3.79
2023-03-16T01:32:34.119Z,-2.94
2023-03-16T01:35:37.608Z,-3.20
2023-03-16T01:38:42.438Z,-3.19
2023-03-16T01:41:47.902Z,-3.27
2023-03-16T01:44:55.492Z,-2.78
2023-03-16T01:48:02.530Z,-2.40
2023-03-16T01:51:08.262Z,-3.56
2023-03-16T01:54:19.555Z,-3.04
2023-03-16T01:57:25.853Z,-3.15
2023-03-16T02:00:32.079Z,-3.35
2023-03-16T02:03:45.250Z,-3.24
2023-03-16T02:06:57.575Z,-3.67
2023-03-16T02:10:04.769Z,-3.40
2023-03-16T02:13:08.383Z,-3.55
2023-03-16T02:16:19.214Z,-2.99
2023-03-16T02:19:33.310Z,-3.11
2023-03-16T02:22:38.739Z,-3.28
2023-03-16T02:25:48.653Z,-3.57
2023-03-16T02:29:02.328Z,-3.24
2023-03-16T02:32:09.945Z,-3.56
2023-03-16T02:35:14.782Z,-3.69
2023-03-16T02:38:18.898Z,-3.83
2023-03-16T02:41:26.867Z,-3.82
2023-03-16T02:44:40.595Z,-3.42
2023-03-16T02:47:45.830Z,-3.77
2023-03-16T02:50:52.829Z,-3.66
2023-03-16T02:53:56.058Z,-3.44
2023-03-16T02:57:00.947Z,-3.05
2023-03-16T03:00:12.264Z,-3.69
2023-03-16T03:03:18.329Z,-3.80
2023-03-16T03:06:21.510Z,-3.74
2023-03-16T03:09:24.595Z,-3.71
2023-03-16T03:12:30.445Z,-3.77
2023-03-16T03:15:34.101Z,-3.75
2023-03-16T03:18:44.082Z,-3.75
2023-03-16T03:21:47.550Z,-3.79
2023-03-16T03:24:51.427Z,-3.92
2023-03-16T03:27:55.458Z,-3.93
2023-03-16T03:31:00.466Z,-3.89
2023-03-16T03:34:06.729Z,-3.96
2023-03-16T03:37:12.029Z,-3.83
2023-03-16T03:40:20.156Z,-3.82
2023-03-16T03:43:27.228Z,-3.48
2023-03-16T03:46:30.546Z,-4.06
2023-03-16T03:49:35.262Z,-3.94
2023-03-16T03:52:38.812Z,-3.93
2023-03-16T03:55:42.800Z,-3.79
2023-03-16T03:58:45.920Z,-3.57
2023-03-16T04:01:54.078Z,-3.09
2023-03-16T04:05:00.627Z,-4.04
2023-03-16T04:08:06.148Z,-3.88
2023-03-16T04:11:11.843Z,-3.17
2023-03-16T04:14:15.747Z,-4.29
2023-03-16T04:17:20.233Z,-4.04
2023-03-16T04:20:26.776Z,-3.74
2023-03-16T04:23:30.136Z,-4.11
2023-03-16T04:26:34.254Z,-4.04
2023-03-16T04:29:39.904Z,-3.60
2023-03-16T04:34:17.654Z,-3.22
2023-03-16T04:37:22.163Z,-4.10
2023-03-16T04:40:26.225Z,-3.74
2023-03-16T04:43:38.274Z,-3.64
2023-03-16T04:46:54.385Z,-4.17
2023-03-16T04:50:01.254Z,-4.22
2023-03-16T04:53:05.479Z,-4.11
2023-03-16T04:56:09.652Z,-3.89
2023-03-16T04:59:13.152Z,-4.46
2023-03-16T05:02:24.882Z,-3.95
2023-03-16T05:05:29.770Z,-4.29
2023-03-16T05:08:33.054Z,-3.70
2023-03-16T05:11:36.412Z,-4.32
2023-03-16T05:14:42.677Z,-3.95
2023-03-16T05:18:04.453Z,-3.89
2023-03-16T05:21:09.436Z,-4.61
2023-03-16T05:24:26.484Z,-4.08
2023-03-16T05:27:30.399Z,-3.92
2023-03-16T05:30:34.102Z,-3.84
2023-03-16T05:33:40.632Z,-4.31
2023-03-16T05:36:49.055Z,-4.20
2023-03-16T05:39:54.026Z,-3.90
2023-03-16T05:43:00.261Z,-3.54
2023-03-16T05:46:04.804Z,-4.46
2023-03-16T05:49:08.873Z,-4.47
2023-03-16T05:52:13.899Z,-4.54
2023-03-16T05:55:18.794Z,-4.65
2023-03-16T05:58:27.305Z,-3.47
2023-03-16T06:01:30.971Z,-4.48
2023-03-16T06:04:34.221Z,-4.16
2023-03-16T06:07:39.042Z,-4.43
2023-03-16T06:10:42.480Z,-4.24
2023-03-16T06:13:45.719Z,-4.20
2023-03-16T06:16:48.876Z,-3.82
2023-03-16T06:19:52.789Z,-3.37
2023-03-16T06:22:57.505Z,-3.87
2023-03-16T06:26:01.049Z,-3.83
2023-03-16T06:29:07.140Z,-3.78
2023-03-16T06:32:12.471Z,-3.66
2023-03-16T06:35:15.802Z,-3.25
2023-03-16T06:38:28.380Z,-3.28
2023-03-16T06:41:45.401Z,-2.87
2023-03-16T06:44:52.696Z,-3.01
2023-03-16T06:47:55.943Z,-2.93
2023-03-16T06:50:59.382Z,-2.86
2023-03-16T06:54:05.798Z,-2.75
2023-03-16T06:57:13.961Z,-2.86
2023-03-16T07:00:17.760Z,-2.65
2023-03-16T07:03:21.626Z,-2.48
2023-03-16T07:06:31.176Z,-2.65
2023-03-16T07:09:38.709Z,-2.55
2023-03-16T07:12:44.631Z,-2.42
2023-03-16T07:15:47.942Z,-2.16
2023-03-16T07:18:52.244Z,-2.09
2023-03-16T07:21:56.575Z,-1.92
2023-03-16T07:25:02.311Z,-1.42
2023-03-16T07:28:06.613Z,-1.37
2023-03-16T07:31:15.771Z,-0.92
2023-03-16T07:34:19.241Z,-1.27
2023-03-16T07:37:27.907Z,-1.14
2023-03-16T07:40:36.000Z,-0.62
2023-03-16T07:43:47.028Z,-0.11
2023-03-16T07:46:51.499Z,-0.23
2023-03-16T07:49:56.012Z,0.16
2023-03-16T07:52:59.814Z,0.25
2023-03-16T07:56:05.668Z,0.18
2023-03-16T07:59:12.415Z,0.21
2023-03-16T08:02:17.450Z,0.46
2023-03-16T08:05:21.270Z,0.81
2023-03-16T08:08:29.224Z,1.06
2023-03-16T08:11:33.904Z,1.07
2023-03-16T08:14:39.834Z,0.63
2023-03-16T08:17:49.188Z,1.45
2023-03-16T08:20:59.773Z,1.28
2023-03-16T08:24:03.144Z,1.66
2023-03-16T08:27:08.059Z,1.52
2023-03-16T08:30:14.961Z,1.60
2023-03-16T08:33:23.640Z,2.11
2023-03-16T08:36:28.952Z,1.84
2023-03-16T08:39:35.621Z,2.03
2023-03-16T08:42:45.127Z,2.41
2023-03-16T08:45:50.849Z,2.72
2023-03-16T08:48:56.831Z,2.84
2023-03-16T08:52:01.625Z,2.73
2023-03-16T08:55:05.918Z,3.09
2023-03-16T08:58:10.904Z,3.39
2023-03-16T09:01:15.576Z,3.16
2023-03-16T09:04:19.009Z,3.07
2023-03-16T09:07:22.689Z,3.17
2023-03-16T09:10:27.698Z,3.02
2023-03-16T09:13:33.176Z,3.10
2023-03-16T09:16:36.423Z,3.31
2023-03-16T09:19:50.988Z,3.28
2023-03-16T09:22:55.923Z,3.93
2023-03-16T09:26:00.363Z,3.64
2023-03-16T09:29:06.848Z,3.63
2023-03-16T09:32:11.081Z,3.93
2023-03-16T09:35:14.774Z,3.60
2023-03-16T09:38:18.763Z,4.21
2023-03-16T09:41:37.363Z,3.90
2023-03-16T09:44:50.045Z,4.33
2023-03-16T09:47:59.564Z,4.11
2023-03-16T09:51:04.852Z,3.89
2023-03-16T09:54:18.032Z,4.23
2023-03-16T09:58:16.594Z,4.11
2023-03-16T10:02:16.319Z,4.26
2023-03-16T10:09:15.337Z,4.66
2023-03-16T10:12:41.363Z,4.94
2023-03-16T10:15:45.955Z,4.32
2023-03-16T10:18:52.242Z,5.14
2023-03-16T10:22:00.617Z,4.58
2023-03-16T10:25:11.744Z,4.58
2023-03-16T10:28:18.075Z,4.41
2023-03-16T10:34:17.738Z,4.78
2023-03-16T10:37:21.429Z,4.96
2023-03-16T10:40:24.588Z,4.70
2023-03-16T10:43:29.678Z,4.83
2023-03-16T10:46:39.512Z,5.01
2023-03-16T10:49:48.822Z,5.43
2023-03-16T10:52:53.362Z,5.34
2023-03-16T10:55:59.756Z,5.31
2023-03-16T10:59:03.389Z,5.35
2023-03-16T11:02:19.453Z,4.96
2023-03-16T11:05:31.104Z,5.40
2023-03-16T11:08:37.274Z,5.34
2023-03-16T11:11:41.162Z,5.15
2023-03-16T11:14:45.527Z,5.48
2023-03-16T11:17:53.518Z,5.71
2023-03-16T11:20:59.246Z,5.43
2023-03-16T11:24:05.288Z,5.96
2023-03-16T11:27:18.039Z,5.83
2023-03-16T11:30:28.937Z,5.70
2023-03-16T11:33:35.938Z,5.62
2023-03-16T11:36:48.931Z,5.59
2023-03-16T11:40:05.209Z,5.85
2023-03-16T11:43:25.564Z,5.85
2023-03-16T11:46:32.320Z,5.95
2023-03-16T11:49:48.428Z,6.19
2023-03-16T11:53:01.127Z,6.15
2023-03-16T11:56:13.841Z,5.86
2023-03-16T12:00:01.022Z,5.99
2023-03-16T12:03:27.254Z,5.98
2023-03-16T12:06:47.582Z,6.01
2023-03-16T12:10:13.871Z,6.06
2023-03-16T12:13:35.600Z,6.06
2023-03-16T12:16:49.765Z,6.48
2023-03-16T12:19:58.765Z,6.13
2023-03-16T12:23:07.765Z,5.89
2023-03-16T12:26:14.654Z,6.15
2023-03-16T12:29:28.426Z,6.33
2023-03-16T12:32:41.188Z,6.56
2023-03-16T12:35:49.997Z,6.34
2023-03-16T12:38:59.979Z,6.23
2023-03-16T12:42:19.352Z,6.31
2023-03-16T12:45:35.109Z,6.30
2023-03-16T12:48:44.602Z,6.66
2023-03-16T12:51:49.203Z,6.65
2023-03-16T12:54:53.367Z,6.31
2023-03-16T12:58:06.302Z,6.20
2023-03-16T13:01:12.492Z,6.84
2023-03-16T13:04:19.247Z,6.62
2023-03-16T13:07:25.343Z,6.81
2023-03-16T13:10:28.798Z,6.73
2023-03-16T13:13:34.403Z,6.78
2023-03-16T13:16:38.576Z,6.49
2023-03-16T13:19:44.846Z,6.75
2023-03-16T13:22:51.265Z,6.88
2023-03-16T13:26:16.000Z,6.89
2023-03-16T13:29:27.036Z,7.03
2023-03-16T13:32:33.804Z,6.82
2023-03-16T13:35:39.502Z,6.91
2023-03-16T13:38:43.394Z,7.21
2023-03-16T13:41:57.153Z,7.04
2023-03-16T13:45:14.331Z,6.99
2023-03-16T13:48:19.056Z,6.72
2023-03-16T13:51:23.652Z,7.17
2023-03-16T13:54:29.751Z,6.80
2023-03-16T13:57:38.166Z,7.04
2023-03-16T14:00:46.975Z,6.80
2023-03-16T14:03:51.392Z,6.88
2023-03-16T14:06:57.277Z,7.03
2023-03-16T14:10:00.877Z,7.10
2023-03-16T14:13:23.921Z,6.94
2023-03-16T14:16:32.028Z,7.23
2023-03-16T14:19:42.474Z,7.18
2023-03-16T14:22:46.170Z,7.21
2023-03-16T14:25:50.194Z,7.38
2023-03-16T14:29:02.781Z,7.06
2023-03-16T14:32:21.831Z,7.32
2023-03-16T14:35:28.971Z,7.04
2023-03-16T14:38:33.771Z,7.04
2023-03-16T14:41:38.353Z,7.18
2023-03-16T14:44:42.317Z,7.32
2023-03-16T14:47:48.367Z,7.29
2023-03-16T14:50:55.559Z,7.53
2023-03-16T14:53:58.849Z,7.24
2023-03-16T14:57:05.378Z,7.37
2023-03-16T15:00:11.985Z,7.46
2023-03-16T15:03:18.414Z,7.36
2023-03-16T15:06:21.830Z,7.44
2023-03-16T15:09:34.796Z,7.17
2023-03-16T15:12:38.390Z,7.17
2023-03-16T15:15:42.791Z,7.12
2023-03-16T15:18:47.717Z,7.16
2023-03-16T15:21:50.942Z,7.05
2023-03-16T15:24:54.352Z,7.17
2023-03-16T15:27:57.754Z,6.99
2023-03-16T15:31:03.611Z,6.71
2023-03-16T15:34:08.246Z,6.80
2023-03-16T15:37:14.953Z,6.88
2023-03-16T15:40:22.091Z,6.79
2023-03-16T15:43:27.179Z,6.88
2023-03-16T15:46:30.670Z,7.02
2023-03-16T15:49:46.555Z,6.99
2023-03-16T15:52:54.733Z,6.91
2023-03-16T15:56:03.016Z,6.61
2023-03-16T15:59:09.228Z,6.72
2023-03-16T16:02:28.432Z,6.73
2023-03-16T16:05:33.669Z,6.77
2023-03-16T16:08:36.937Z,6.72
2023-03-16T16:11:41.265Z,6.60
2023-03-16T16:14:44.623Z,6.70
2023-03-16T16:18:09.951Z,6.66
2023-03-16T16:21:18.263Z,6.73
2023-03-16T16:24:22.539Z,6.66
2023-03-16T16:27:25.772Z,6.56
2023-03-16T16:34:21.076Z,6.58
2023-03-16T16:37:24.392Z,6.22
2023-03-16T16:40:38.876Z,6.45
2023-03-16T16:43:44.921Z,6.46
2023-03-16T16:46:49.265Z,6.47
2023-03-16T16:49:53.765Z,6.32
2023-03-16T16:52:57.361Z,6.35
2023-03-16T16:56:00.936Z,6.22
2023-03-16T16:59:15.094Z,6.21
2023-03-16T17:02:30.368Z,6.26
2023-03-16T17:05:34.881Z,6.16
2023-03-16T17:08:38.049Z,6.38
2023-03-16T17:11:43.042Z,5.92
2023-03-16T17:14:46.245Z,5.98
2023-03-16T17:17:49.820Z,6.17
2023-03-16T17:20:55.050Z,5.75
2023-03-16T17:24:00.118Z,5.66
2023-03-16T17:27:04.840Z,5.63
2023-03-16T17:30:20.338Z,5.58
2023-03-16T17:33:26.656Z,5.53
2023-03-16T17:36:31.511Z,5.52
2023-03-16T17:39:35.450Z,5.48
2023-03-16T17:42:38.923Z,5.37
2023-03-16T17:45:42.295Z,5.37
2023-03-16T17:48:45.611Z,5.31
2023-03-16T17:51:50.164Z,5.27
2023-03-16T17:54:54.707Z,5.22
2023-03-16T17:57:58.261Z,5.08
2023-03-16T18:01:08.754Z,5.12
2023-03-16T18:04:17.807Z,4.95
2023-03-16T18:07:22.408Z,4.98
2023-03-16T18:10:28.622Z,4.90
2023-03-16T18:13:34.580Z,4.86
2023-03-16T18:16:38.232Z,4.82
2023-03-16T18:19:45.445Z,4.78
2023-03-16T18:22:50.430Z,4.74
2023-03-16T18:25:56.105Z,4.75
2023-03-16T18:28:59.325Z,4.76
2023-03-16T18:32:02.610Z,4.72
2023-03-16T18:35:06.804Z,4.66
2023-03-16T18:38:18.547Z,4.65
2023-03-16T18:41:24.048Z,4.61
2023-03-16T18:44:27.469Z,4.51
2023-03-16T18:47:31.646Z,4.50
2023-03-16T18:50:34.979Z,4.47
2023-03-16T18:53:39.580Z,4.45
2023-03-16T18:56:42.691Z,4.36
2023-03-16T18:59:46.520Z,4.25
2023-03-16T19:02:54.310Z,4.23
2023-03-16T19:05:59.779Z,4.01
2023-03-16T19:09:08.814Z,4.09
2023-03-16T19:12:17.058Z,4.07
2023-03-16T19:15:22.815Z,3.97
2023-03-16T19:18:26.585Z,3.95
2023-03-16T19:21:29.711Z,3.88
2023-03-16T19:24:36.781Z,3.75
2023-03-16T19:27:42.000Z,3.96
2023-03-16T19:30:46.640Z,3.98
2023-03-16T19:33:54.415Z,3.78
2023-03-16T19:36:57.585Z,3.77
2023-03-16T19:40:02.647Z,3.73
2023-03-16T19:43:06.097Z,3.70
2023-03-16T19:46:14.184Z,3.81
2023-03-16T19:49:18.318Z,3.61
2023-03-16T19:52:21.726Z,3.40
2023-03-16T19:55:30.690Z,3.53
2023-03-16T19:58:38.470Z,3.63
2023-03-16T20:01:41.983Z,3.54
2023-03-16T20:04:45.163Z,3.50
2023-03-16T20:07:48.780Z,3.54
2023-03-16T20:10:57.785Z,3.41
2023-03-16T20:14:01.725Z,3.44
2023-03-16T20:17:05.990Z,3.40
2023-03-16T20:20:19.689Z,3.44
2023-03-16T20:23:25.797Z,3.33
2023-03-16T20:26:32.782Z,3.36
2023-03-16T20:29:36.037Z,3.28
2023-03-16T20:32:39.833Z,3.25
2023-03-16T20:35:43.169Z,3.22
2023-03-16T20:38:46.776Z,2.94
2023-03-16T20:41:52.474Z,2.98
2023-03-16T20:44:55.839Z,3.03
2023-03-16T20:47:59.128Z,3.00
2023-03-16T20:51:02.725Z,3.13
2023-03-16T20:54:06.212Z,2.97
2023-03-16T20:57:17.273Z,2.93
2023-03-16T21:11:51.186Z,2.87
2023-03-16T21:14:58.846Z,3.27
2023-03-16T21:18:04.036Z,3.01
2023-03-16T21:21:07.215Z,2.24
2023-03-16T21:24:10.505Z,2.57
2023-03-16T21:27:20.271Z,2.82
2023-03-16T21:30:30.817Z,2.12
2023-03-16T21:33:37.274Z,2.66
2023-03-16T21:36:41.335Z,2.22
2023-03-16T21:39:46.164Z,1.88
2023-03-16T21:42:50.695Z,2.48
2023-03-16T21:45:56.730Z,2.45
2023-03-16T21:48:59.966Z,2.00
2023-03-16T21:52:03.564Z,2.66
2023-03-16T21:55:07.495Z,2.35
2023-03-16T21:58:10.677Z,2.36
2023-03-16T22:01:23.126Z,2.19
2023-03-16T22:04:26.579Z,2.81
2023-03-16T22:07:30.283Z,3.04
2023-03-16T22:10:33.454Z,2.45
2023-03-16T22:13:36.637Z,2.26
2023-03-16T22:16:42.422Z,2.12
2023-03-16T22:19:45.736Z,2.15
2023-03-16T22:22:49.507Z,2.34
2023-03-16T22:25:52.721Z,2.11
2023-03-16T22:28:57.085Z,2.14
2023-03-16T22:34:27.347Z,2.25
2023-03-16T22:37:31.269Z,1.91
2023-03-16T22:40:37.678Z,2.26
2023-03-16T22:43:43.342Z,2.19
2023-03-16T22:46:46.560Z,2.28
2023-03-16T22:49:51.074Z,2.17
2023-03-16T22:52:58.191Z,2.14
2023-03-16T22:56:03.688Z,2.27
2023-03-16T22:59:13.078Z,2.17
2023-03-16T23:02:16.785Z,2.28
2023-03-16T23:05:24.535Z,2.20
2023-03-16T23:08:27.863Z,1.54
2023-03-16T23:11:32.944Z,1.38
2023-03-16T23:14:38.067Z,1.19
2023-03-16T23:17:41.407Z,1.90
2023-03-16T23:20:47.221Z,1.99
2023-03-16T23:24:02.943Z,1.93
2023-03-16T23:27:15.550Z,2.06
2023-03-16T23:30:23.017Z,1.89
2023-03-16T23:33:29.044Z,1.90
2023-03-16T23:36:33.597Z,1.86
2023-03-16T23:39:36.920Z,1.90
2023-03-16T23:42:45.398Z,2.01
2023-03-16T23:45:51.254Z,1.19
2023-03-16T23:48:57.729Z,1.68
2023-03-16T23:52:02.591Z,1.82
2023-03-16T23:55:10.994Z,1.31
2023-03-16T23:58:15.959Z,1.28
